sensor_id;sensor_type;location;lat;lon;timestamp;pressure;altitude;pressure_sealevel;temperature;humidity
65553;BME280;52465;51.560;14.368;2023-03-24T00:00:12;99397.03;;;13.91;64.75
65553;BME280;52465;51.560;14.368;2023-03-24T00:02:40;99380.78;;;13.74;64.84
65553;BME280;52465;51.560;14.368;2023-03-24T00:05:14;99396.22;;;13.90;64.82
65553;BME280;52465;51.560;14.368;2023-03-24T00:08:05;99396.41;;;13.89;64.68
65553;BME280;52465;51.560;14.368;2023-03-24T00:10:33;99379.38;;;13.78;64.68
65553;BME280;52465;51.560;14.368;2023-03-24T00:13:01;99394.78;;;13.81;64.72
65553;BME280;52465;51.560;14.368;2023-03-24T00:15:26;99368.63;;;13.66;64.72
65553;BME280;52465;51.560;14.368;2023-03-24T00:17:52;99381.00;;;13.79;64.91
65553;BME280;52465;51.560;14.368;2023-03-24T00:20:21;99386.47;;;13.84;64.63
65553;BME280;52465;51.560;14.368;2023-03-24T00:22:50;99350.00;;;13.61;64.72
65553;BME280;52465;51.560;14.368;2023-03-24T00:25:29;99382.25;;;13.83;64.72
65553;BME280;52465;51.560;14.368;2023-03-24T00:28:00;99385.69;;;13.84;65.05
65553;BME280;52465;51.560;14.368;2023-03-24T00:30:28;99380.63;;;13.82;65.11
65553;BME280;52465;51.560;14.368;2023-03-24T00:32:53;99378.81;;;13.83;65.18
65553;BME280;52465;51.560;14.368;2023-03-24T00:35:19;99363.38;;;13.66;64.94
65553;BME280;52465;51.560;14.368;2023-03-24T00:37:45;99368.25;;;13.76;65.21
65553;BME280;52465;51.560;14.368;2023-03-24T00:40:13;99373.75;;;13.81;64.78
65553;BME280;52465;51.560;14.368;2023-03-24T00:42:41;99367.03;;;13.79;64.73
65553;BME280;52465;51.560;14.368;2023-03-24T00:45:10;99345.97;;;13.65;65.02
65553;BME280;52465;51.560;14.368;2023-03-24T00:47:35;99366.84;;;13.80;65.08
65553;BME280;52465;51.560;14.368;2023-03-24T00:50:07;99363.59;;;13.78;64.87
65553;BME280;52465;51.560;14.368;2023-03-24T00:52:33;99348.03;;;13.70;65.08
65553;BME280;52465;51.560;14.368;2023-03-24T00:55:00;99357.75;;;13.76;64.75
65553;BME280;52465;51.560;14.368;2023-03-24T00:57:30;99362.00;;;13.77;64.76
65553;BME280;52465;51.560;14.368;2023-03-24T01:00:00;99307.69;;;13.49;65.07
65553;BME280;52465;51.560;14.368;2023-03-24T01:02:31;99336.69;;;13.69;64.76
65553;BME280;52465;51.560;14.368;2023-03-24T01:04:59;99336.28;;;13.72;64.83
65553;BME280;52465;51.560;14.368;2023-03-24T01:07:27;99342.97;;;13.75;64.96
65553;BME280;52465;51.560;14.368;2023-03-24T01:09:55;99333.44;;;13.74;64.96
65553;BME280;52465;51.560;14.368;2023-03-24T01:12:30;99334.44;;;13.73;64.97
65553;BME280;52465;51.560;14.368;2023-03-24T01:15:00;99291.72;;;13.51;64.89
65553;BME280;52465;51.560;14.368;2023-03-24T01:17:29;99311.19;;;13.70;65.03
65553;BME280;52465;51.560;14.368;2023-03-24T01:19:55;99324.13;;;13.71;64.82
65553;BME280;52465;51.560;14.368;2023-03-24T01:22:21;99311.78;;;13.65;64.93
65553;BME280;52465;51.560;14.368;2023-03-24T01:24:50;99307.94;;;13.68;65.27
65553;BME280;52465;51.560;14.368;2023-03-24T01:27:17;99312.00;;;13.70;65.34
65553;BME280;52465;51.560;14.368;2023-03-24T01:29:43;99298.84;;;13.64;65.02
65553;BME280;52465;51.560;14.368;2023-03-24T01:32:08;99275.56;;;13.47;65.18
65553;BME280;52465;51.560;14.368;2023-03-24T01:34:34;99287.09;;;13.60;65.03
65553;BME280;52465;51.560;14.368;2023-03-24T01:37:00;99304.28;;;13.69;64.99
65553;BME280;52465;51.560;14.368;2023-03-24T01:39:26;99301.66;;;13.69;65.27
65553;BME280;52465;51.560;14.368;2023-03-24T01:41:52;99291.34;;;13.67;64.95
65553;BME280;52465;51.560;14.368;2023-03-24T01:44:35;99283.66;;;13.66;65.13
65553;BME280;52465;51.560;14.368;2023-03-24T01:47:05;99283.47;;;13.67;65.07
65553;BME280;52465;51.560;14.368;2023-03-24T01:49:34;99263.81;;;13.57;65.17
65553;BME280;52465;51.560;14.368;2023-03-24T01:52:02;99277.59;;;13.65;65.30
65553;BME280;52465;51.560;14.368;2023-03-24T01:54:39;99262.41;;;13.61;65.16
65553;BME280;52465;51.560;14.368;2023-03-24T01:57:11;99252.91;;;13.60;65.14
65553;BME280;52465;51.560;14.368;2023-03-24T01:59:44;99266.28;;;13.65;64.96
65553;BME280;52465;51.560;14.368;2023-03-24T02:02:11;99264.03;;;13.62;65.09
65553;BME280;52465;51.560;14.368;2023-03-24T02:04:45;99256.94;;;13.62;65.08
65553;BME280;52465;51.560;14.368;2023-03-24T02:09:50;99239.34;;;13.56;65.33
65553;BME280;52465;51.560;14.368;2023-03-24T02:12:16;99249.25;;;13.61;64.91
65553;BME280;52465;51.560;14.368;2023-03-24T02:14:42;99243.41;;;13.59;65.08
65553;BME280;52465;51.560;14.368;2023-03-24T02:17:11;99242.56;;;13.52;65.33
65553;BME280;52465;51.560;14.368;2023-03-24T02:22:48;99246.84;;;13.59;65.07
65553;BME280;52465;51.560;14.368;2023-03-24T02:25:58;99236.31;;;13.53;65.29
65553;BME280;52465;51.560;14.368;2023-03-24T02:29:00;99240.16;;;13.57;65.12
65553;BME280;52465;51.560;14.368;2023-03-24T02:31:56;99229.84;;;13.55;65.06
65553;BME280;52465;51.560;14.368;2023-03-24T02:34:49;99228.03;;;13.56;65.35
65553;BME280;52465;51.560;14.368;2023-03-24T02:37:37;99219.31;;;13.55;64.97
65553;BME280;52465;51.560;14.368;2023-03-24T02:40:25;99205.38;;;13.48;65.23
65553;BME280;52465;51.560;14.368;2023-03-24T02:43:06;99204.34;;;13.49;65.18
65553;BME280;52465;51.560;14.368;2023-03-24T02:45:39;99208.38;;;13.52;65.27
65553;BME280;52465;51.560;14.368;2023-03-24T02:48:18;99208.22;;;13.53;65.18
65553;BME280;52465;51.560;14.368;2023-03-24T02:53:39;99209.19;;;13.52;65.48
65553;BME280;52465;51.560;14.368;2023-03-24T02:56:12;99200.50;;;13.52;65.07
65553;BME280;52465;51.560;14.368;2023-03-24T02:58:46;99199.91;;;13.49;65.40
65553;BME280;52465;51.560;14.368;2023-03-24T03:01:43;99186.34;;;13.46;65.40
65553;BME280;52465;51.560;14.368;2023-03-24T03:04:23;99191.41;;;13.47;65.06
65553;BME280;52465;51.560;14.368;2023-03-24T03:06:55;99189.38;;;13.43;65.43
65553;BME280;52465;51.560;14.368;2023-03-24T03:09:24;99162.25;;;13.29;65.30
65553;BME280;52465;51.560;14.368;2023-03-24T03:11:53;99196.84;;;13.46;65.56
65553;BME280;52465;51.560;14.368;2023-03-24T03:14:36;99195.03;;;13.46;65.45
65553;BME280;52465;51.560;14.368;2023-03-24T03:17:07;99182.50;;;13.42;65.49
65553;BME280;52465;51.560;14.368;2023-03-24T03:19:41;99191.59;;;13.46;65.30
65553;BME280;52465;51.560;14.368;2023-03-24T03:22:14;99179.47;;;13.38;65.62
65553;BME280;52465;51.560;14.368;2023-03-24T03:24:42;99176.41;;;13.35;65.18
65553;BME280;52465;51.560;14.368;2023-03-24T03:27:13;99193.41;;;13.45;64.96
65553;BME280;52465;51.560;14.368;2023-03-24T03:29:44;99190.19;;;13.43;65.40
65553;BME280;52465;51.560;14.368;2023-03-24T03:32:17;99180.06;;;13.34;65.17
65553;BME280;52465;51.560;14.368;2023-03-24T03:35:21;99199.91;;;13.43;65.39
65553;BME280;52465;51.560;14.368;2023-03-24T03:38:08;99195.66;;;13.42;65.19
65553;BME280;52465;51.560;14.368;2023-03-24T03:40:58;99198.28;;;13.42;65.22
65553;BME280;52465;51.560;14.368;2023-03-24T03:43:25;99159.03;;;13.27;65.21
65553;BME280;52465;51.560;14.368;2023-03-24T03:45:53;99175.81;;;13.39;65.39
65553;BME280;52465;51.560;14.368;2023-03-24T03:48:18;99178.06;;;13.42;65.17
65553;BME280;52465;51.560;14.368;2023-03-24T03:50:44;99180.06;;;13.40;65.22
65553;BME280;52465;51.560;14.368;2023-03-24T03:53:13;99158.00;;;13.28;65.66
65553;BME280;52465;51.560;14.368;2023-03-24T03:55:42;99187.94;;;13.40;65.26
65553;BME280;52465;51.560;14.368;2023-03-24T03:58:08;99153.75;;;13.20;65.49
65553;BME280;52465;51.560;14.368;2023-03-24T04:00:34;99176.63;;;13.33;65.35
65553;BME280;52465;51.560;14.368;2023-03-24T04:03:14;99180.28;;;13.39;65.23
65553;BME280;52465;51.560;14.368;2023-03-24T04:05:49;99192.41;;;13.40;65.51
65553;BME280;52465;51.560;14.368;2023-03-24T04:08:47;99183.91;;;13.38;65.47
65553;BME280;52465;51.560;14.368;2023-03-24T04:20:18;99191.19;;;13.36;65.28
65553;BME280;52465;51.560;14.368;2023-03-24T04:25:58;99186.94;;;13.35;65.75
65553;BME280;52465;51.560;14.368;2023-03-24T04:28:39;99186.94;;;13.35;65.25
65553;BME280;52465;51.560;14.368;2023-03-24T04:31:19;99185.09;;;13.35;65.66
65553;BME280;52465;51.560;14.368;2023-03-24T04:33:51;99175.59;;;13.34;65.41
65553;BME280;52465;51.560;14.368;2023-03-24T04:36:24;99170.34;;;13.34;65.71
65553;BME280;52465;51.560;14.368;2023-03-24T04:38:52;99164.28;;;13.27;65.35
65553;BME280;52465;51.560;14.368;2023-03-24T04:41:23;99168.75;;;13.33;65.20
65553;BME280;52465;51.560;14.368;2023-03-24T04:43:51;99124.19;;;12.98;65.43
65553;BME280;52465;51.560;14.368;2023-03-24T04:46:22;99162.88;;;13.31;65.52
65553;BME280;52465;51.560;14.368;2023-03-24T04:48:48;99133.72;;;13.19;65.35
65553;BME280;52465;51.560;14.368;2023-03-24T04:51:16;99140.44;;;13.22;65.53
65553;BME280;52465;51.560;14.368;2023-03-24T04:53:42;99080.13;;;12.81;65.33
65553;BME280;52465;51.560;14.368;2023-03-24T04:58:56;99142.88;;;13.30;65.49
65553;BME280;52465;51.560;14.368;2023-03-24T05:01:23;99125.44;;;13.16;65.40
65553;BME280;52465;51.560;14.368;2023-03-24T05:03:53;99144.88;;;13.21;65.41
65553;BME280;52465;51.560;14.368;2023-03-24T05:06:19;99139.63;;;13.21;65.29
65553;BME280;52465;51.560;14.368;2023-03-24T05:08:44;99131.13;;;13.26;65.32
65553;BME280;52465;51.560;14.368;2023-03-24T05:11:09;99108.44;;;13.05;65.34
65553;BME280;52465;51.560;14.368;2023-03-24T05:13:35;99133.56;;;13.28;65.84
65553;BME280;52465;51.560;14.368;2023-03-24T05:16:00;99131.13;;;13.26;65.74
65553;BME280;52465;51.560;14.368;2023-03-24T05:18:28;99125.66;;;13.21;65.88
65553;BME280;52465;51.560;14.368;2023-03-24T05:20:54;99117.16;;;13.19;65.57
65553;BME280;52465;51.560;14.368;2023-03-24T05:23:20;99130.94;;;13.28;65.92
65553;BME280;52465;51.560;14.368;2023-03-24T05:25:46;99110.47;;;13.16;65.67
65553;BME280;52465;51.560;14.368;2023-03-24T05:28:11;99131.34;;;13.25;65.44
65553;BME280;52465;51.560;14.368;2023-03-24T05:30:37;99105.22;;;13.10;65.73
65553;BME280;52465;51.560;14.368;2023-03-24T05:33:03;99132.16;;;13.25;65.71
65553;BME280;52465;51.560;14.368;2023-03-24T05:35:28;99132.97;;;13.26;65.94
65553;BME280;52465;51.560;14.368;2023-03-24T05:37:54;99138.41;;;13.24;65.59
65553;BME280;52465;51.560;14.368;2023-03-24T05:40:20;99111.66;;;13.07;65.98
65553;BME280;52465;51.560;14.368;2023-03-24T05:42:48;99135.75;;;13.24;65.91
65553;BME280;52465;51.560;14.368;2023-03-24T05:45:15;99140.03;;;13.25;65.66
65553;BME280;52465;51.560;14.368;2023-03-24T05:47:40;99128.66;;;13.18;65.86
65553;BME280;52465;51.560;14.368;2023-03-24T05:50:06;99138.19;;;13.19;65.69
65553;BME280;52465;51.560;14.368;2023-03-24T05:52:32;99133.34;;;13.22;65.83
65553;BME280;52465;51.560;14.368;2023-03-24T05:55:00;99111.69;;;13.14;65.62
65553;BME280;52465;51.560;14.368;2023-03-24T05:57:26;99124.66;;;13.22;65.60
65553;BME280;52465;51.560;14.368;2023-03-24T05:59:55;99109.28;;;13.19;65.61
65553;BME280;52465;51.560;14.368;2023-03-24T06:02:22;99114.16;;;13.22;65.56
65553;BME280;52465;51.560;14.368;2023-03-24T06:04:48;99076.09;;;13.05;65.74
65553;BME280;52465;51.560;14.368;2023-03-24T06:07:16;99100.38;;;13.20;65.58
65553;BME280;52465;51.560;14.368;2023-03-24T06:09:44;99091.50;;;13.21;65.63
65553;BME280;52465;51.560;14.368;2023-03-24T06:12:19;99085.81;;;13.17;65.90
65553;BME280;52465;51.560;14.368;2023-03-24T06:14:45;99074.69;;;13.09;65.69
65553;BME280;52465;51.560;14.368;2023-03-24T06:17:11;99082.56;;;13.15;65.82
65553;BME280;52465;51.560;14.368;2023-03-24T06:19:41;99075.72;;;13.14;65.71
65553;BME280;52465;51.560;14.368;2023-03-24T06:22:16;99079.34;;;13.20;66.07
65553;BME280;52465;51.560;14.368;2023-03-24T06:24:42;99067.19;;;13.12;65.62
65553;BME280;52465;51.560;14.368;2023-03-24T06:27:09;99075.13;;;13.19;65.59
65553;BME280;52465;51.560;14.368;2023-03-24T06:29:35;99056.09;;;13.10;65.60
65553;BME280;52465;51.560;14.368;2023-03-24T06:32:01;99061.13;;;13.18;65.61
65553;BME280;52465;51.560;14.368;2023-03-24T06:34:26;99056.91;;;13.17;65.93
65553;BME280;52465;51.560;14.368;2023-03-24T06:36:54;99042.94;;;13.17;65.87
65553;BME280;52465;51.560;14.368;2023-03-24T06:39:19;99028.00;;;12.97;65.55
65553;BME280;52465;51.560;14.368;2023-03-24T06:41:45;99036.47;;;13.13;65.50
65553;BME280;52465;51.560;14.368;2023-03-24T06:44:12;99048.22;;;13.17;65.56
65553;BME280;52465;51.560;14.368;2023-03-24T06:46:38;99043.75;;;13.17;65.70
65553;BME280;52465;51.560;14.368;2023-03-24T06:49:04;99039.53;;;13.16;65.50
65553;BME280;52465;51.560;14.368;2023-03-24T06:51:30;99031.03;;;13.14;65.80
65553;BME280;52465;51.560;14.368;2023-03-24T06:53:58;99039.31;;;13.18;66.03
65553;BME280;52465;51.560;14.368;2023-03-24T06:56:23;99034.25;;;13.16;65.72
65553;BME280;52465;51.560;14.368;2023-03-24T06:58:48;99024.16;;;13.07;65.70
65553;BME280;52465;51.560;14.368;2023-03-24T07:01:14;99038.72;;;13.16;66.02
65553;BME280;52465;51.560;14.368;2023-03-24T07:03:40;99035.88;;;13.17;66.11
65553;BME280;52465;51.560;14.368;2023-03-24T07:06:08;99035.88;;;13.17;65.50
65553;BME280;52465;51.560;14.368;2023-03-24T07:08:34;99004.53;;;12.96;65.40
65553;BME280;52465;51.560;14.368;2023-03-24T07:11:00;99013.03;;;13.05;65.97
65553;BME280;52465;51.560;14.368;2023-03-24T07:13:26;99030.03;;;13.15;66.21
65553;BME280;52465;51.560;14.368;2023-03-24T07:15:52;99012.81;;;13.13;65.76
65553;BME280;52465;51.560;14.368;2023-03-24T07:18:17;99007.00;;;13.04;65.45
65553;BME280;52465;51.560;14.368;2023-03-24T07:20:44;99008.59;;;13.12;66.06
65553;BME280;52465;51.560;14.368;2023-03-24T07:23:10;99001.75;;;12.97;66.22
65553;BME280;52465;51.560;14.368;2023-03-24T07:25:36;99031.63;;;13.16;65.90
65553;BME280;52465;51.560;14.368;2023-03-24T07:28:01;99026.16;;;13.18;65.90
65553;BME280;52465;51.560;14.368;2023-03-24T07:30:27;99021.53;;;13.20;66.09
65553;BME280;52465;51.560;14.368;2023-03-24T07:32:55;98976.66;;;13.02;66.07
65553;BME280;52465;51.560;14.368;2023-03-24T07:35:21;99004.94;;;13.13;66.26
65553;BME280;52465;51.560;14.368;2023-03-24T07:37:46;99006.19;;;13.23;66.32
65553;BME280;52465;51.560;14.368;2023-03-24T07:40:14;99006.38;;;13.22;66.13
65553;BME280;52465;51.560;14.368;2023-03-24T07:42:41;98996.69;;;13.22;66.35
65553;BME280;52465;51.560;14.368;2023-03-24T07:45:09;99000.94;;;13.23;66.10
65553;BME280;52465;51.560;14.368;2023-03-24T07:47:36;98989.19;;;13.13;66.14
65553;BME280;52465;51.560;14.368;2023-03-24T07:50:06;99005.75;;;13.20;66.41
65553;BME280;52465;51.560;14.368;2023-03-24T07:52:51;98999.88;;;13.18;66.32
65553;BME280;52465;51.560;14.368;2023-03-24T07:55:17;98991.03;;;13.19;66.50
65553;BME280;52465;51.560;14.368;2023-03-24T07:57:46;98989.38;;;13.18;66.21
65553;BME280;52465;51.560;14.368;2023-03-24T08:00:12;98882.38;;;12.54;66.45
65553;BME280;52465;51.560;14.368;2023-03-24T08:02:50;98983.75;;;13.21;66.55
65553;BME280;52465;51.560;14.368;2023-03-24T08:05:20;98974.63;;;13.17;66.12
65553;BME280;52465;51.560;14.368;2023-03-24T08:07:50;98972.22;;;13.22;66.43
65553;BME280;52465;51.560;14.368;2023-03-24T08:10:28;98971.41;;;13.21;65.97
65553;BME280;52465;51.560;14.368;2023-03-24T08:12:54;98960.91;;;13.21;66.49
65553;BME280;52465;51.560;14.368;2023-03-24T08:15:20;98973.44;;;13.19;66.25
65553;BME280;52465;51.560;14.368;2023-03-24T08:17:47;98953.41;;;13.12;66.26
65553;BME280;52465;51.560;14.368;2023-03-24T08:20:13;98939.91;;;13.08;66.08
65553;BME280;52465;51.560;14.368;2023-03-24T08:22:41;98961.50;;;13.17;66.04
65553;BME280;52465;51.560;14.368;2023-03-24T08:25:08;98950.78;;;13.12;66.47
65553;BME280;52465;51.560;14.368;2023-03-24T08:27:36;98909.00;;;12.97;66.06
65553;BME280;52465;51.560;14.368;2023-03-24T08:30:07;98940.47;;;13.17;66.41
65553;BME280;52465;51.560;14.368;2023-03-24T08:32:34;98959.88;;;13.22;66.13
65553;BME280;52465;51.560;14.368;2023-03-24T08:35:00;98959.88;;;13.22;66.39
65553;BME280;52465;51.560;14.368;2023-03-24T08:37:26;98949.38;;;13.16;66.25
65553;BME280;52465;51.560;14.368;2023-03-24T08:39:52;98953.59;;;13.37;66.38
65553;BME280;52465;51.560;14.368;2023-03-24T08:42:22;98947.13;;;13.39;66.25
65553;BME280;52465;51.560;14.368;2023-03-24T08:44:47;98965.66;;;13.58;66.07
65553;BME280;52465;51.560;14.368;2023-03-24T08:47:13;98949.50;;;13.54;65.72
65553;BME280;52465;51.560;14.368;2023-03-24T08:49:38;98944.66;;;13.51;66.15
65553;BME280;52465;51.560;14.368;2023-03-24T08:52:05;98946.63;;;13.62;66.20
65553;BME280;52465;51.560;14.368;2023-03-24T08:54:30;98955.97;;;13.58;65.95
65553;BME280;52465;51.560;14.368;2023-03-24T08:56:55;98961.00;;;13.60;65.99
65553;BME280;52465;51.560;14.368;2023-03-24T08:59:21;98918.47;;;13.25;66.13
65553;BME280;52465;51.560;14.368;2023-03-24T09:01:46;98974.38;;;13.58;66.42
65553;BME280;52465;51.560;14.368;2023-03-24T09:04:12;98955.97;;;13.52;66.29
65553;BME280;52465;51.560;14.368;2023-03-24T09:06:39;98960.03;;;13.54;66.51
65553;BME280;52465;51.560;14.368;2023-03-24T09:09:04;98959.25;;;13.47;66.19
65553;BME280;52465;51.560;14.368;2023-03-24T09:11:30;98974.78;;;13.55;66.67
65553;BME280;52465;51.560;14.368;2023-03-24T09:13:55;98970.75;;;13.53;66.37
65553;BME280;52465;51.560;14.368;2023-03-24T09:16:20;98987.13;;;13.55;66.32
65553;BME280;52465;51.560;14.368;2023-03-24T09:21:47;98981.47;;;13.51;66.59
65553;BME280;52465;51.560;14.368;2023-03-24T09:24:13;98984.88;;;13.52;66.25
65553;BME280;52465;51.560;14.368;2023-03-24T09:26:42;98962.31;;;13.31;66.53
65553;BME280;52465;51.560;14.368;2023-03-24T09:29:07;98991.78;;;13.53;66.49
65553;BME280;52465;51.560;14.368;2023-03-24T09:31:33;98993.00;;;13.43;66.60
65553;BME280;52465;51.560;14.368;2023-03-24T09:33:59;98975.84;;;13.34;66.42
65553;BME280;52465;51.560;14.368;2023-03-24T09:36:25;99012.19;;;13.50;66.59
65553;BME280;52465;51.560;14.368;2023-03-24T09:38:51;99008.19;;;13.41;66.80
65553;BME280;52465;51.560;14.368;2023-03-24T09:41:21;99012.44;;;13.42;66.45
65553;BME280;52465;51.560;14.368;2023-03-24T09:43:55;99011.00;;;13.40;66.75
65553;BME280;52465;51.560;14.368;2023-03-24T09:46:32;99015.66;;;13.44;66.50
65553;BME280;52465;51.560;14.368;2023-03-24T09:49:05;99017.28;;;13.39;66.53
65553;BME280;52465;51.560;14.368;2023-03-24T09:51:38;99027.19;;;13.50;66.32
65553;BME280;52465;51.560;14.368;2023-03-24T09:57:21;98977.69;;;13.27;66.61
65553;BME280;52465;51.560;14.368;2023-03-24T10:00:18;99007.38;;;13.47;66.56
65553;BME280;52465;51.560;14.368;2023-03-24T10:02:44;99011.41;;;13.50;66.78
65553;BME280;52465;51.560;14.368;2023-03-24T10:05:21;99001.13;;;13.42;66.53
65553;BME280;52465;51.560;14.368;2023-03-24T10:08:05;99014.44;;;13.47;66.65
65553;BME280;52465;51.560;14.368;2023-03-24T10:16:14;98995.03;;;13.48;66.79
65553;BME280;52465;51.560;14.368;2023-03-24T10:18:51;99000.47;;;13.46;66.48
65553;BME280;52465;51.560;14.368;2023-03-24T10:21:59;98987.75;;;13.43;66.71
65553;BME280;52465;51.560;14.368;2023-03-24T10:24:38;98991.16;;;13.50;66.66
65553;BME280;52465;51.560;14.368;2023-03-24T10:27:19;98993.59;;;13.52;66.75
65553;BME280;52465;51.560;14.368;2023-03-24T10:29:53;98949.16;;;13.24;66.85
65553;BME280;52465;51.560;14.368;2023-03-24T10:32:26;98983.50;;;13.49;66.61
65553;BME280;52465;51.560;14.368;2023-03-24T10:34:59;98959.88;;;13.36;66.40
65553;BME280;52465;51.560;14.368;2023-03-24T10:37:34;98978.84;;;13.44;66.57
65553;BME280;52465;51.560;14.368;2023-03-24T10:40:13;98987.53;;;13.52;66.95
65553;BME280;52465;51.560;14.368;2023-03-24T10:42:40;98982.06;;;13.46;66.48
65553;BME280;52465;51.560;14.368;2023-03-24T10:45:11;98966.78;;;13.30;66.46
65553;BME280;52465;51.560;14.368;2023-03-24T10:47:38;98988.31;;;13.52;66.69
65553;BME280;52465;51.560;14.368;2023-03-24T10:50:07;98949.97;;;13.38;66.71
65553;BME280;52465;51.560;14.368;2023-03-24T10:52:41;98966.13;;;13.41;67.14
65553;BME280;52465;51.560;14.368;2023-03-24T10:55:17;98983.47;;;13.56;66.90
65553;BME280;52465;51.560;14.368;2023-03-24T10:57:58;98985.69;;;13.59;66.63
65553;BME280;52465;51.560;14.368;2023-03-24T11:00:25;98983.47;;;13.56;66.87
65553;BME280;52465;51.560;14.368;2023-03-24T11:02:58;98974.38;;;13.52;66.71
65553;BME280;52465;51.560;14.368;2023-03-24T11:05:31;98969.75;;;13.47;66.70
65553;BME280;52465;51.560;14.368;2023-03-24T11:10:57;98991.75;;;13.59;66.59
65553;BME280;52465;51.560;14.368;2023-03-24T11:18:30;98976.81;;;13.53;66.72
65553;BME280;52465;51.560;14.368;2023-03-24T11:21:00;98997.03;;;13.59;66.88
65553;BME280;52465;51.560;14.368;2023-03-24T11:23:41;98994.41;;;13.59;66.44
65553;BME280;52465;51.560;14.368;2023-03-24T11:26:19;98985.50;;;13.60;66.98
65553;BME280;52465;51.560;14.368;2023-03-24T11:28:50;98982.06;;;13.53;67.14
65553;BME280;52465;51.560;14.368;2023-03-24T11:31:24;98997.63;;;13.61;66.54
65553;BME280;52465;51.560;14.368;2023-03-24T11:33:56;98998.41;;;13.62;66.34
65553;BME280;52465;51.560;14.368;2023-03-24T11:39:24;98975.38;;;13.50;66.68
65553;BME280;52465;51.560;14.368;2023-03-24T11:47:22;98985.69;;;13.59;66.28
65553;BME280;52465;51.560;14.368;2023-03-24T11:50:12;98990.53;;;13.62;66.28
65553;BME280;52465;51.560;14.368;2023-03-24T11:52:58;98985.28;;;13.62;66.49
65553;BME280;52465;51.560;14.368;2023-03-24T11:58:26;98983.25;;;13.64;66.51
65553;BME280;52465;51.560;14.368;2023-03-24T12:00:58;98977.16;;;13.63;66.38
65553;BME280;52465;51.560;14.368;2023-03-24T12:08:47;98960.41;;;13.58;66.07
65553;BME280;52465;51.560;14.368;2023-03-24T12:14:25;98971.09;;;13.69;66.00
65553;BME280;52465;51.560;14.368;2023-03-24T12:17:12;98974.53;;;13.70;65.61
65553;BME280;52465;51.560;14.368;2023-03-24T12:19:58;98971.25;;;13.74;66.02
65553;BME280;52465;51.560;14.368;2023-03-24T12:22:49;98982.41;;;13.76;65.85
65553;BME280;52465;51.560;14.368;2023-03-24T12:33:41;98973.69;;;13.76;65.81
65553;BME280;52465;51.560;14.368;2023-03-24T12:39:03;98947.44;;;13.63;65.86
65553;BME280;52465;51.560;14.368;2023-03-24T12:41:33;98962.97;;;13.77;66.09
65553;BME280;52465;51.560;14.368;2023-03-24T12:52:49;98935.84;;;13.77;66.02
65553;BME280;52465;51.560;14.368;2023-03-24T12:55:32;98942.78;;;13.65;65.87
65553;BME280;52465;51.560;14.368;2023-03-24T12:58:12;98931.66;;;13.69;66.27
65553;BME280;52465;51.560;14.368;2023-03-24T13:01:12;98941.13;;;13.77;65.96
65553;BME280;52465;51.560;14.368;2023-03-24T13:04:16;98938.50;;;13.77;65.99
65553;BME280;52465;51.560;14.368;2023-03-24T13:07:03;98938.50;;;13.77;65.86
65553;BME280;52465;51.560;14.368;2023-03-24T13:15:01;98956.09;;;13.76;66.20
65553;BME280;52465;51.560;14.368;2023-03-24T13:20:35;98937.31;;;13.66;65.87
65553;BME280;52465;51.560;14.368;2023-03-24T13:26:14;98961.56;;;13.75;66.27
65553;BME280;52465;51.560;14.368;2023-03-24T13:31:32;98974.50;;;13.76;66.13
65553;BME280;52465;51.560;14.368;2023-03-24T13:36:48;98982.00;;;13.73;66.14
65553;BME280;52465;51.560;14.368;2023-03-24T13:39:19;98994.78;;;13.63;65.98
65553;BME280;52465;51.560;14.368;2023-03-24T13:41:49;99014.97;;;13.75;65.81
65553;BME280;52465;51.560;14.368;2023-03-24T13:44:23;99010.56;;;13.69;65.87
65553;BME280;52465;51.560;14.368;2023-03-24T13:49:30;99030.34;;;13.72;66.10
65553;BME280;52465;51.560;14.368;2023-03-24T13:51:56;99033.59;;;13.74;65.98
65553;BME280;52465;51.560;14.368;2023-03-24T13:54:40;99032.38;;;13.76;66.02
65553;BME280;52465;51.560;14.368;2023-03-24T13:57:12;99034.78;;;13.78;66.09
65553;BME280;52465;51.560;14.368;2023-03-24T14:02:50;99054.69;;;14.12;65.94
65553;BME280;52465;51.560;14.368;2023-03-24T14:10:51;99045.47;;;14.35;66.06
65553;BME280;52465;51.560;14.368;2023-03-24T14:13:19;99039.00;;;14.37;66.18
65553;BME280;52465;51.560;14.368;2023-03-24T14:21:14;99048.63;;;14.57;66.14
65553;BME280;52465;51.560;14.368;2023-03-24T14:26:14;99065.59;;;14.67;66.17
65553;BME280;52465;51.560;14.368;2023-03-24T14:28:44;99052.66;;;14.66;66.23
65553;BME280;52465;51.560;14.368;2023-03-24T14:36:09;99069.78;;;14.75;66.35
65553;BME280;52465;51.560;14.368;2023-03-24T14:38:43;99079.06;;;14.84;66.59
65553;BME280;52465;51.560;14.368;2023-03-24T14:41:14;99059.66;;;14.78;66.80
65553;BME280;52465;51.560;14.368;2023-03-24T14:48:56;99050.78;;;14.73;66.73
65553;BME280;52465;51.560;14.368;2023-03-24T14:54:34;99073.16;;;14.89;66.78
65553;BME280;52465;51.560;14.368;2023-03-24T14:57:18;99105.31;;;14.97;66.65
65553;BME280;52465;51.560;14.368;2023-03-24T14:59:57;99102.50;;;14.99;66.79
65553;BME280;52465;51.560;14.368;2023-03-24T15:02:50;99109.59;;;14.98;66.63
65553;BME280;52465;51.560;14.368;2023-03-24T15:05:20;99111.22;;;14.99;66.71
65553;BME280;52465;51.560;14.368;2023-03-24T15:10:40;99091.03;;;14.80;66.93
65553;BME280;52465;51.560;14.368;2023-03-24T15:15:56;99094.59;;;14.92;67.05
65553;BME280;52465;51.560;14.368;2023-03-24T15:18:22;99114.44;;;15.01;67.00
65553;BME280;52465;51.560;14.368;2023-03-24T15:20:52;99103.13;;;14.94;67.08
65553;BME280;52465;51.560;14.368;2023-03-24T15:23:25;99098.66;;;14.95;67.46
65553;BME280;52465;51.560;14.368;2023-03-24T15:25:53;99103.66;;;15.03;66.93
65553;BME280;52465;51.560;14.368;2023-03-24T15:28:28;99064.28;;;14.83;67.14